Time;durP1;ratioP1;P1;durP2;ratioP2;P2;SDS_P1;SDS_P2;PMS_P1;PMS_P2;Temp;Humidity;BMP_temperature;BMP_pressure;BME280_temperature;BME280_humidity;BME280_pressure;Samples;Min_cycle;Max_cycle;Signal;HPM_P1;HPM_P2
2021/08/03 05:16:05;;;;;;;;;;;;;;;26.58;49.42;99274.84;4983283;28;1360;-59
2021/08/03 05:18:32;;;;;;;;;;;;;;;26.58;49.16;99297.50;4992082;28;823;-60
2021/08/03 05:20:58;;;;;;;;;;;;;;;26.63;48.99;99305.97;4992188;28;814;-59
2021/08/03 05:23:24;;;;;;;;;;;;;;;26.79;48.53;99304.31;4992128;28;885;-59
2021/08/03 05:25:51;;;;;;;;;;;;;;;26.87;48.79;99321.50;4992331;28;826;-59
2021/08/03 05:28:18;;;;;;;;;;;;;;;27.02;48.34;99326.81;4990959;28;1147;-60
2021/08/03 05:30:47;;;;;;;;;;;;;;;27.36;48.12;99326.53;4992218;28;873;-59
2021/08/03 05:33:14;;;;;;;;;;;;;;;27.75;47.38;99357.31;4992152;28;854;-60
2021/08/03 05:35:41;;;;;;;;;;;;;;;28.07;46.29;99346.13;4991916;28;1907;-60
2021/08/03 05:38:08;;;;;;;;;;;;;;;28.56;45.75;99348.09;4991988;28;949;-59
2021/08/03 05:40:34;;;;;;;;;;;;;;;29.07;44.15;99353.75;4991891;28;850;-61
2021/08/03 05:43:01;;;;;;;;;;;;;;;29.61;43.00;99348.19;4992017;28;846;-61
2021/08/03 05:45:27;;;;;;;;;;;;;;;30.35;41.44;99356.06;4992020;28;964;-61
2021/08/03 05:47:54;;;;;;;;;;;;;;;30.74;40.53;99358.03;4992298;28;799;-60
2021/08/03 05:50:21;;;;;;;;;;;;;;;30.78;40.33;99363.38;4992277;28;823;-60
2021/08/03 05:52:48;;;;;;;;;;;;;;;30.88;40.60;99373.03;4992018;28;849;-60
2021/08/03 05:55:14;;;;;;;;;;;;;;;31.62;39.48;99375.59;4994466;28;1890;-60
2021/08/03 05:57:41;;;;;;;;;;;;;;;32.38;37.93;99377.34;4995838;28;755;-60
2021/08/03 06:00:08;;;;;;;;;;;;;;;32.39;37.14;99378.13;4995388;28;958;-60
2021/08/03 06:02:34;;;;;;;;;;;;;;;32.17;37.87;99380.31;4995305;28;1114;-59
2021/08/03 06:05:01;;;;;;;;;;;;;;;32.47;37.56;99371.09;4995226;28;810;-60
2021/08/03 06:07:27;;;;;;;;;;;;;;;32.06;37.40;99369.97;4995199;28;838;-59
2021/08/03 06:09:57;;;;;;;;;;;;;;;31.77;38.36;99368.44;4995195;28;835;-60
2021/08/03 06:12:24;;;;;;;;;;;;;;;31.99;38.34;99364.22;4994003;28;1192;-60
2021/08/03 06:14:53;;;;;;;;;;;;;;;31.98;38.45;99372.03;4995015;28;1879;-61
2021/08/03 06:17:30;;;;;;;;;;;;;;;31.86;38.57;99370.81;4995074;28;834;-62
2021/08/03 06:19:56;;;;;;;;;;;;;;;32.00;38.16;99369.38;4994984;28;787;-61
2021/08/03 06:22:24;;;;;;;;;;;;;;;31.74;38.41;99362.53;4995236;28;881;-61
2021/08/03 06:24:50;;;;;;;;;;;;;;;31.49;39.83;99367.09;4994851;28;819;-61
2021/08/03 06:27:18;;;;;;;;;;;;;;;31.65;39.56;99374.47;4994875;28;819;-62
2021/08/03 06:29:46;;;;;;;;;;;;;;;31.49;40.00;99361.41;4994748;28;910;-61
2021/08/03 06:32:13;;;;;;;;;;;;;;;31.29;40.45;99355.13;4994791;28;870;-62
2021/08/03 06:34:42;;;;;;;;;;;;;;;31.52;40.30;99366.75;4994710;28;1910;-62
2021/08/03 06:37:09;;;;;;;;;;;;;;;31.93;39.39;99355.78;4994533;28;953;-60
2021/08/03 06:39:36;;;;;;;;;;;;;;;32.02;39.16;99351.66;4994763;28;815;-60
2021/08/03 06:42:06;;;;;;;;;;;;;;;31.56;40.36;99351.34;4994571;28;894;-60
2021/08/03 06:44:50;;;;;;;;;;;;;;;31.31;40.98;99343.16;4994420;28;859;-61
2021/08/03 06:47:22;;;;;;;;;;;;;;;31.71;40.82;99357.94;4994474;28;822;-61
2021/08/03 06:49:51;;;;;;;;;;;;;;;31.84;40.36;99367.75;4994506;28;849;-61
2021/08/03 06:52:19;;;;;;;;;;;;;;;31.90;39.92;99357.69;4994631;28;827;-62
2021/08/03 06:54:50;;;;;;;;;;;;;;;32.02;39.75;99348.81;4994572;28;1987;-60
2021/08/03 06:57:18;;;;;;;;;;;;;;;31.98;39.76;99354.88;4993120;28;791;-61
2021/08/03 06:59:49;;;;;;;;;;;;;;;31.69;40.30;99374.88;4994413;28;818;-61
2021/08/03 07:02:37;;;;;;;;;;;;;;;31.49;40.91;99379.31;4994227;28;842;-61
2021/08/03 07:05:16;;;;;;;;;;;;;;;31.66;40.98;99373.13;4993658;28;896;-60
2021/08/03 07:07:43;;;;;;;;;;;;;;;32.02;40.15;99381.00;4994111;28;802;-60
2021/08/03 07:10:10;;;;;;;;;;;;;;;32.33;39.67;99387.63;4994364;28;877;-62
2021/08/03 07:12:37;;;;;;;;;;;;;;;31.98;39.92;99394.88;4994179;28;814;-61
2021/08/03 07:15:03;;;;;;;;;;;;;;;31.69;40.46;99392.03;4994001;28;1890;-61
2021/08/03 07:17:30;;;;;;;;;;;;;;;31.92;40.42;99380.75;4994340;28;823;-60
2021/08/03 07:20:01;;;;;;;;;;;;;;;32.09;40.16;99386.00;4994699;28;881;-60
2021/08/03 07:22:28;;;;;;;;;;;;;;;32.37;39.96;99390.13;4993792;28;810;-60
2021/08/03 07:24:56;;;;;;;;;;;;;;;32.39;40.65;99387.47;4993876;28;909;-61
2021/08/03 07:27:22;;;;;;;;;;;;;;;32.26;39.89;99394.09;4993710;28;842;-60
2021/08/03 07:29:49;;;;;;;;;;;;;;;32.05;40.56;99384.81;4993896;28;839;-61
2021/08/03 07:32:16;;;;;;;;;;;;;;;32.28;40.37;99374.25;4993733;28;829;-61
2021/08/03 07:34:43;;;;;;;;;;;;;;;32.29;40.68;99381.53;4993583;28;1914;-63
2021/08/03 07:37:10;;;;;;;;;;;;;;;32.48;40.49;99377.59;4993525;28;873;-62
2021/08/03 07:39:38;;;;;;;;;;;;;;;32.50;40.15;99369.22;4993483;28;938;-62
2021/08/03 07:42:05;;;;;;;;;;;;;;;32.35;40.77;99372.78;4993551;28;842;-63
2021/08/03 07:44:32;;;;;;;;;;;;;;;32.42;40.91;99385.56;4993379;28;877;-64
2021/08/03 07:46:58;;;;;;;;;;;;;;;32.25;40.90;99386.06;4993414;28;811;-64
2021/08/03 07:49:25;;;;;;;;;;;;;;;32.35;40.77;99390.69;4993296;28;898;-61
2021/08/03 07:51:52;;;;;;;;;;;;;;;32.58;40.70;99387.16;4993235;28;799;-63
2021/08/03 07:54:19;;;;;;;;;;;;;;;32.83;40.40;99380.94;4993210;28;1993;-63
2021/08/03 07:56:45;;;;;;;;;;;;;;;32.78;40.25;99382.66;4993242;28;839;-64
2021/08/03 07:59:11;;;;;;;;;;;;;;;32.73;40.76;99381.50;4993127;28;898;-60
2021/08/03 08:01:38;;;;;;;;;;;;;;;32.87;41.01;99384.22;4993119;28;831;-63
2021/08/03 08:04:05;;;;;;;;;;;;;;;33.22;40.44;99385.41;4993037;28;823;-61
2021/08/03 08:06:32;;;;;;;;;;;;;;;33.58;39.80;99393.03;4992908;28;858;-61
2021/08/03 08:08:59;;;;;;;;;;;;;;;33.32;39.51;99388.47;4993053;28;807;-62
2021/08/03 08:11:25;;;;;;;;;;;;;;;33.06;40.37;99383.84;4992912;28;823;-62
2021/08/03 08:13:51;;;;;;;;;;;;;;;33.62;39.60;99392.69;4993019;28;1894;-61
2021/08/03 08:16:18;;;;;;;;;;;;;;;33.38;39.76;99394.03;4992856;28;1223;-61
2021/08/03 08:18:45;;;;;;;;;;;;;;;33.25;40.29;99398.59;4992813;28;791;-61
2021/08/03 08:21:11;;;;;;;;;;;;;;;33.49;39.84;99399.34;4993730;28;751;-61
2021/08/03 08:23:38;;;;;;;;;;;;;;;33.34;39.75;99388.66;4992715;28;861;-61
2021/08/03 08:26:05;;;;;;;;;;;;;;;33.22;40.25;99391.13;4993309;28;849;-62
2021/08/03 08:28:30;;;;;;;;;;;;;;;33.65;39.68;99391.53;4992647;28;819;-61
2021/08/03 08:30:57;;;;;;;;;;;;;;;33.90;38.83;99398.19;4992531;28;842;-62
2021/08/03 08:33:24;;;;;;;;;;;;;;;33.89;38.50;99387.31;4992596;28;874;-61
2021/08/03 08:35:51;;;;;;;;;;;;;;;34.06;38.40;99386.69;4992463;28;1907;-60
2021/08/03 08:38:17;;;;;;;;;;;;;;;33.91;38.63;99391.13;4992539;28;826;-61
2021/08/03 08:40:44;;;;;;;;;;;;;;;33.72;39.02;99388.66;4992340;28;917;-61
2021/08/03 08:43:12;;;;;;;;;;;;;;;33.67;39.08;99383.91;4992537;28;822;-62
2021/08/03 08:45:40;;;;;;;;;;;;;;;33.89;38.65;99396.66;4992298;28;894;-61
2021/08/03 08:48:10;;;;;;;;;;;;;;;34.34;38.82;99400.00;4992392;28;846;-62
2021/08/03 08:50:36;;;;;;;;;;;;;;;34.35;37.37;99396.56;4992612;28;807;-62
2021/08/03 08:53:03;;;;;;;;;;;;;;;34.07;38.35;99394.69;4992548;28;807;-62
2021/08/03 08:55:29;;;;;;;;;;;;;;;34.01;38.49;99401.97;4992709;28;1882;-61
2021/08/03 08:57:56;;;;;;;;;;;;;;;34.10;38.34;99404.28;4992724;28;771;-62
2021/08/03 09:00:23;;;;;;;;;;;;;;;34.10;37.88;99390.69;4992639;28;799;-62
2021/08/03 09:02:52;;;;;;;;;;;;;;;34.06;37.95;99398.16;4992563;28;803;-61
2021/08/03 09:05:28;;;;;;;;;;;;;;;34.20;37.89;99408.06;4992463;28;829;-63
2021/08/03 09:07:56;;;;;;;;;;;;;;;34.30;37.62;99411.84;4992176;28;822;-63
2021/08/03 09:10:30;;;;;;;;;;;;;;;34.33;37.51;99412.81;4992110;28;825;-62
2021/08/03 09:13:00;;;;;;;;;;;;;;;34.66;36.69;99407.91;4992147;28;858;-62
2021/08/03 09:15:27;;;;;;;;;;;;;;;35.09;35.81;99405.91;4992054;28;1882;-63
2021/08/03 09:18:08;;;;;;;;;;;;;;;34.98;35.72;99406.38;4992620;28;929;-62
2021/08/03 09:20:34;;;;;;;;;;;;;;;34.77;35.88;99403.84;4992041;28;795;-62
2021/08/03 09:23:01;;;;;;;;;;;;;;;34.71;35.69;99401.19;4992068;28;895;-62
2021/08/03 09:25:27;;;;;;;;;;;;;;;34.52;35.77;99415.97;4992052;28;901;-61
2021/08/03 09:28:01;;;;;;;;;;;;;;;34.21;36.93;99408.84;4991977;28;850;-62
2021/08/03 09:30:31;;;;;;;;;;;;;;;34.64;35.69;99419.22;4995017;28;853;-62
2021/08/03 09:32:58;;;;;;;;;;;;;;;34.54;35.86;99407.53;4995889;28;851;-62
2021/08/03 09:35:26;;;;;;;;;;;;;;;34.30;35.76;99411.09;4995921;28;1902;-62
2021/08/03 09:37:53;;;;;;;;;;;;;;;34.25;37.03;99424.31;4995789;28;906;-62
2021/08/03 09:40:30;;;;;;;;;;;;;;;34.54;35.98;99424.75;4995583;28;815;-61
2021/08/03 09:43:03;;;;;;;;;;;;;;;34.45;36.07;99424.63;4994373;28;1323;-62
2021/08/03 09:45:31;;;;;;;;;;;;;;;34.43;35.96;99430.19;4995625;28;807;-62
2021/08/03 09:48:07;;;;;;;;;;;;;;;34.48;35.71;99429.97;4995601;28;851;-62
2021/08/03 09:50:54;;;;;;;;;;;;;;;34.39;36.12;99433.44;4995601;28;818;-62
2021/08/03 10:05:32;;;;;;;;;;;;;;;34.11;35.67;99443.81;4995565;28;589;-62
2021/08/03 10:07:59;;;;;;;;;;;;;;;34.19;36.15;99440.97;4995253;28;799;-62
2021/08/03 10:10:26;;;;;;;;;;;;;;;33.82;36.58;99449.03;4995097;28;791;-63
2021/08/03 10:12:52;;;;;;;;;;;;;;;33.51;37.32;99446.13;4995145;28;858;-63
2021/08/03 10:15:19;;;;;;;;;;;;;;;33.55;37.39;99440.03;4995191;28;1890;-61
2021/08/03 10:17:45;;;;;;;;;;;;;;;33.80;37.64;99443.13;4995495;28;871;-63
2021/08/03 10:20:13;;;;;;;;;;;;;;;33.93;36.32;99439.28;4995231;28;870;-61
2021/08/03 10:22:57;;;;;;;;;;;;;;;33.73;36.75;99449.59;4995135;28;799;-61
2021/08/03 10:25:45;;;;;;;;;;;;;;;33.55;36.64;99448.63;4995002;28;791;-63
2021/08/03 10:28:22;;;;;;;;;;;;;;;33.51;37.50;99445.38;4994654;28;1266;-63
2021/08/03 10:30:49;;;;;;;;;;;;;;;33.50;37.20;99446.69;4994765;28;847;-62
2021/08/03 10:33:33;;;;;;;;;;;;;;;33.38;37.00;99439.84;4994767;28;839;-63
2021/08/03 10:35:59;;;;;;;;;;;;;;;33.54;37.49;99453.59;4994609;28;1969;-63
2021/08/03 10:38:29;;;;;;;;;;;;;;;33.74;37.36;99451.91;4994615;28;783;-63
2021/08/03 10:41:05;;;;;;;;;;;;;;;34.23;35.81;99458.53;4994464;28;834;-63
2021/08/03 10:43:34;;;;;;;;;;;;;;;34.27;36.25;99441.72;4994524;28;914;-62
2021/08/03 10:46:09;;;;;;;;;;;;;;;34.20;36.63;99442.47;4994567;28;830;-62
2021/08/03 10:48:39;;;;;;;;;;;;;;;34.50;35.70;99438.75;4993230;28;1510;-63
2021/08/03 10:51:15;;;;;;;;;;;;;;;34.51;35.32;99437.41;4994723;28;783;-63
2021/08/03 10:53:59;;;;;;;;;;;;;;;34.25;34.76;99432.16;4994365;28;1957;-62
2021/08/03 10:56:25;;;;;;;;;;;;;;;34.14;35.48;99442.69;4994368;28;870;-62
2021/08/03 10:59:12;;;;;;;;;;;;;;;34.32;35.22;99443.59;4994304;28;872;-62
2021/08/03 11:01:46;;;;;;;;;;;;;;;34.36;35.69;99443.22;4987000;28;1208;-62
2021/08/03 11:04:30;;;;;;;;;;;;;;;34.49;34.92;99445.06;4994195;28;859;-63
2021/08/03 11:07:16;;;;;;;;;;;;;;;34.38;35.25;99443.41;4994138;28;775;-62
2021/08/03 11:09:43;;;;;;;;;;;;;;;34.59;34.56;99451.72;4994046;28;981;-62
2021/08/03 11:12:28;;;;;;;;;;;;;;;34.60;33.70;99456.13;4994121;28;822;-63
2021/08/03 11:14:54;;;;;;;;;;;;;;;34.70;33.85;99439.84;4993723;28;1942;-63
2021/08/03 11:17:53;;;;;;;;;;;;;;;34.75;33.68;99452.44;4994117;28;862;-62
2021/08/03 11:20:41;;;;;;;;;;;;;;;34.75;33.80;99449.56;4971579;28;1117;-63
2021/08/03 11:23:13;;;;;;;;;;;;;;;34.69;34.05;99444.03;4993822;28;799;-62
2021/08/03 11:25:41;;;;;;;;;;;;;;;34.70;33.56;99442.72;4994059;28;850;-63
2021/08/03 11:28:11;;;;;;;;;;;;;;;34.72;34.16;99440.03;4993899;28;839;-63
2021/08/03 11:30:38;;;;;;;;;;;;;;;35.05;34.20;99448.63;4993731;28;818;-62
2021/08/03 11:33:05;;;;;;;;;;;;;;;35.11;33.52;99439.81;4993721;28;811;-62
2021/08/03 11:35:32;;;;;;;;;;;;;;;35.09;32.34;99431.75;4993608;28;1974;-63
2021/08/03 11:38:03;;;;;;;;;;;;;;;35.20;32.57;99429.81;4993360;28;830;-63
2021/08/03 11:40:30;;;;;;;;;;;;;;;35.42;32.45;99433.84;4993680;28;890;-63
2021/08/03 11:42:58;;;;;;;;;;;;;;;35.41;32.55;99427.34;4993440;28;787;-61
2021/08/03 11:45:24;;;;;;;;;;;;;;;35.69;32.75;99431.16;4993462;28;794;-63
2021/08/03 11:47:53;;;;;;;;;;;;;;;35.88;32.12;99436.34;4993368;28;847;-62
2021/08/03 11:50:36;;;;;;;;;;;;;;;35.74;31.10;99433.03;4993396;28;846;-62
2021/08/03 11:53:09;;;;;;;;;;;;;;;35.73;32.37;99435.16;4992691;28;886;-62
2021/08/03 11:55:36;;;;;;;;;;;;;;;35.92;32.10;99425.97;4993190;28;1922;-61
2021/08/03 11:58:03;;;;;;;;;;;;;;;35.97;31.59;99427.81;4993197;28;863;-62
2021/08/03 12:00:29;;;;;;;;;;;;;;;36.09;31.21;99428.09;4993330;28;834;-61
2021/08/03 12:02:57;;;;;;;;;;;;;;;36.28;30.80;99432.50;4993370;28;994;-62
2021/08/03 12:05:26;;;;;;;;;;;;;;;36.31;30.69;99437.81;4993001;28;883;-63
2021/08/03 12:07:56;;;;;;;;;;;;;;;36.49;30.07;99429.16;4992911;28;795;-62
2021/08/03 12:10:25;;;;;;;;;;;;;;;36.69;30.21;99428.00;4992879;28;946;-62
2021/08/03 12:12:52;;;;;;;;;;;;;;;36.81;30.46;99436.09;4992904;28;807;-62
2021/08/03 12:15:19;;;;;;;;;;;;;;;36.85;29.83;99434.31;4992543;28;1900;-62
2021/08/03 12:17:48;;;;;;;;;;;;;;;36.81;29.80;99436.09;4993208;28;819;-62
2021/08/03 12:20:21;;;;;;;;;;;;;;;36.87;29.81;99439.47;4992990;28;878;-61
2021/08/03 12:22:48;;;;;;;;;;;;;;;37.04;29.52;99438.63;4992732;28;852;-61
2021/08/03 12:25:15;;;;;;;;;;;;;;;37.13;28.62;99432.22;4992703;28;839;-62
2021/08/03 12:27:43;;;;;;;;;;;;;;;37.27;28.75;99444.84;4992828;28;850;-62
2021/08/03 12:30:29;;;;;;;;;;;;;;;37.59;28.38;99443.75;4991382;28;1086;-62
2021/08/03 12:32:56;;;;;;;;;;;;;;;38.21;27.96;99436.91;4992586;28;867;-62
2021/08/03 12:35:22;;;;;;;;;;;;;;;38.35;27.09;99446.63;4992523;28;1914;-62
2021/08/03 12:37:49;;;;;;;;;;;;;;;38.14;27.46;99429.19;4992474;28;811;-62
2021/08/03 12:40:29;;;;;;;;;;;;;;;38.39;27.38;99444.06;4991216;28;2075;-62
2021/08/03 12:42:58;;;;;;;;;;;;;;;38.02;28.25;99452.03;4992451;28;954;-62
2021/08/03 12:45:26;;;;;;;;;;;;;;;37.93;28.25;99439.13;4992386;28;878;-63
2021/08/03 12:47:53;;;;;;;;;;;;;;;37.13;29.18;99450.25;4992535;28;869;-63
2021/08/03 12:50:20;;;;;;;;;;;;;;;36.89;29.88;99451.13;4992506;28;885;-62
2021/08/03 12:52:49;;;;;;;;;;;;;;;36.50;29.86;99451.59;4992846;28;802;-62
2021/08/03 12:58:43;;;;;;;;;;;;;;;37.96;28.68;99440.81;4992325;28;626;-62
2021/08/03 13:01:18;;;;;;;;;;;;;;;38.45;28.46;99435.06;4992260;28;877;-62
2021/08/03 13:03:48;;;;;;;;;;;;;;;38.62;27.47;99431.28;4991347;28;835;-62
2021/08/03 13:06:15;;;;;;;;;;;;;;;38.50;27.41;99442.69;4992405;28;815;-62
2021/08/03 13:08:42;;;;;;;;;;;;;;;38.48;27.29;99436.75;4992475;28;827;-62
2021/08/03 13:11:11;;;;;;;;;;;;;;;38.82;27.10;99434.16;4992274;28;910;-62
2021/08/03 13:13:38;;;;;;;;;;;;;;;38.94;26.46;99426.34;4990815;28;972;-62
2021/08/03 13:16:06;;;;;;;;;;;;;;;39.10;25.74;99429.69;4990563;28;1944;-62
2021/08/03 13:18:34;;;;;;;;;;;;;;;39.08;25.81;99435.31;4992364;28;862;-62
2021/08/03 13:21:01;;;;;;;;;;;;;;;39.33;25.43;99434.91;4992055;28;906;-62
2021/08/03 13:23:27;;;;;;;;;;;;;;;38.91;25.97;99436.25;4992041;28;834;-64
2021/08/03 13:25:55;;;;;;;;;;;;;;;38.29;26.46;99437.53;4990723;28;1209;-63
2021/08/03 13:28:22;;;;;;;;;;;;;;;38.23;27.07;99433.44;4992148;28;823;-62
2021/08/03 13:30:49;;;;;;;;;;;;;;;38.42;27.01;99433.41;4992031;28;823;-62
2021/08/03 13:33:16;;;;;;;;;;;;;;;38.63;27.04;99441.47;4991933;28;902;-62
2021/08/03 13:35:42;;;;;;;;;;;;;;;38.76;26.65;99446.00;4992098;28;1910;-63
2021/08/03 13:38:09;;;;;;;;;;;;;;;38.59;26.68;99444.06;4990596;28;1340;-63
2021/08/03 13:40:36;;;;;;;;;;;;;;;37.83;26.62;99455.66;4992052;28;803;-64
2021/08/03 13:43:02;;;;;;;;;;;;;;;37.34;26.62;99454.72;4991916;28;874;-64
2021/08/03 13:45:28;;;;;;;;;;;;;;;37.05;27.64;99460.34;4991928;28;838;-63
2021/08/03 13:47:55;;;;;;;;;;;;;;;37.14;27.78;99466.16;4992181;28;875;-63
2021/08/03 13:50:21;;;;;;;;;;;;;;;37.32;27.04;99464.00;4991776;28;843;-64
2021/08/03 13:52:47;;;;;;;;;;;;;;;37.18;27.76;99468.63;4991877;28;802;-63
2021/08/03 13:55:13;;;;;;;;;;;;;;;37.10;27.40;99462.94;4991681;28;1957;-63
2021/08/03 13:57:40;;;;;;;;;;;;;;;37.23;28.04;99458.16;4991740;28;865;-62
2021/08/03 14:00:07;;;;;;;;;;;;;;;37.63;27.37;99466.38;4992023;28;807;-63
2021/08/03 14:02:35;;;;;;;;;;;;;;;37.35;27.69;99467.78;4991699;28;957;-63
2021/08/03 14:05:01;;;;;;;;;;;;;;;37.11;27.82;99461.59;4991674;28;874;-62
2021/08/03 14:07:27;;;;;;;;;;;;;;;37.13;28.36;99463.91;4991676;28;850;-62
2021/08/03 14:09:54;;;;;;;;;;;;;;;37.14;27.87;99466.16;4991897;28;839;-62
2021/08/03 14:12:21;;;;;;;;;;;;;;;36.92;28.19;99467.25;4991658;28;875;-62
2021/08/03 14:14:47;;;;;;;;;;;;;;;36.64;28.35;99465.66;4991797;28;1890;-62
2021/08/03 14:17:15;;;;;;;;;;;;;;;36.54;28.76;99463.44;4995181;28;882;-62
2021/08/03 14:19:41;;;;;;;;;;;;;;;36.30;28.99;99470.09;4995036;28;886;-62
2021/08/03 14:22:08;;;;;;;;;;;;;;;36.35;29.27;99457.56;4995090;28;858;-62
2021/08/03 14:24:33;;;;;;;;;;;;;;;36.42;28.96;99459.56;4994878;28;925;-61
2021/08/03 14:27:00;;;;;;;;;;;;;;;36.48;29.16;99465.81;4994990;28;918;-62
2021/08/03 14:29:28;;;;;;;;;;;;;;;36.11;29.32;99462.75;4994883;28;810;-62
2021/08/03 14:31:54;;;;;;;;;;;;;;;35.82;29.57;99464.59;4994820;28;827;-62
2021/08/03 14:34:21;;;;;;;;;;;;;;;35.53;30.11;99465.75;4994727;28;1973;-61
2021/08/03 14:36:48;;;;;;;;;;;;;;;35.29;30.59;99478.78;4994907;28;946;-62
2021/08/03 14:39:14;;;;;;;;;;;;;;;35.13;31.60;99472.34;4994688;28;871;-62
2021/08/03 14:41:41;;;;;;;;;;;;;;;34.94;31.90;99475.69;4994753;28;838;-62
2021/08/03 14:44:09;;;;;;;;;;;;;;;34.87;31.81;99478.63;4994669;28;850;-62
2021/08/03 14:46:36;;;;;;;;;;;;;;;34.82;32.05;99482.44;4994694;28;866;-62
2021/08/03 14:49:02;;;;;;;;;;;;;;;34.75;31.75;99475.41;4994851;28;818;-62
2021/08/03 14:51:29;;;;;;;;;;;;;;;34.68;31.58;99476.97;4994742;28;815;-61
2021/08/03 14:53:55;;;;;;;;;;;;;;;34.79;31.89;99472.91;4994665;28;1882;-61
2021/08/03 14:56:21;;;;;;;;;;;;;;;35.04;30.96;99472.22;4994447;28;919;-62
2021/08/03 14:58:47;;;;;;;;;;;;;;;34.93;30.86;99467.66;4994868;28;850;-61
2021/08/03 15:01:14;;;;;;;;;;;;;;;34.83;31.09;99469.63;4994384;28;859;-62
2021/08/03 15:03:41;;;;;;;;;;;;;;;34.67;31.74;99468.94;4994597;28;807;-62
2021/08/03 15:06:07;;;;;;;;;;;;;;;34.40;32.05;99474.34;4994405;28;901;-61
2021/08/03 15:08:36;;;;;;;;;;;;;;;34.26;32.26;99468.84;4994386;28;807;-62
2021/08/03 15:11:02;;;;;;;;;;;;;;;34.25;32.27;99463.72;4994310;28;979;-62
2021/08/03 15:13:29;;;;;;;;;;;;;;;34.41;32.25;99464.41;4994177;28;874;-61
2021/08/03 15:15:56;;;;;;;;;;;;;;;34.87;31.67;99458.53;4993867;28;1933;-61
2021/08/03 15:18:23;;;;;;;;;;;;;;;35.25;31.18;99466.16;4994348;28;831;-62
2021/08/03 15:20:50;;;;;;;;;;;;;;;35.19;31.15;99466.41;4994270;28;759;-61
2021/08/03 15:23:16;;;;;;;;;;;;;;;35.22;30.66;99464.47;4994407;28;835;-61
2021/08/03 15:25:43;;;;;;;;;;;;;;;35.11;30.82;99463.53;4994071;28;858;-61
2021/08/03 15:28:09;;;;;;;;;;;;;;;35.18;31.03;99462.75;4992840;28;815;-61
2021/08/03 15:30:36;;;;;;;;;;;;;;;35.08;31.00;99463.94;4993687;28;831;-61
2021/08/03 15:33:03;;;;;;;;;;;;;;;34.66;31.42;99467.41;4993737;28;882;-62
2021/08/03 15:35:30;;;;;;;;;;;;;;;34.37;31.95;99476.28;4993420;28;1973;-61
2021/08/03 15:37:55;;;;;;;;;;;;;;;34.21;32.05;99477.66;4993656;28;855;-62
2021/08/03 15:40:22;;;;;;;;;;;;;;;34.03;32.46;99479.56;4993498;28;901;-61
2021/08/03 15:42:49;;;;;;;;;;;;;;;33.90;33.00;99474.81;4993572;28;803;-62
2021/08/03 15:45:15;;;;;;;;;;;;;;;33.69;33.20;99478.66;4993370;28;876;-61
2021/08/03 15:47:43;;;;;;;;;;;;;;;33.42;33.72;99483.94;4993452;28;854;-62
2021/08/03 15:50:10;;;;;;;;;;;;;;;33.25;33.66;99475.16;4993351;28;898;-61
2021/08/03 15:52:37;;;;;;;;;;;;;;;33.09;34.23;99486.53;4993295;28;815;-61
2021/08/03 15:55:04;;;;;;;;;;;;;;;33.03;34.56;99485.94;4993174;28;1910;-62
2021/08/03 15:57:31;;;;;;;;;;;;;;;32.92;34.46;99477.69;4993203;28;803;-61
2021/08/03 15:59:58;;;;;;;;;;;;;;;32.79;35.23;99481.47;4993207;28;823;-61
2021/08/03 16:02:25;;;;;;;;;;;;;;;32.70;35.41;99482.78;4993047;28;922;-62
2021/08/03 16:04:52;;;;;;;;;;;;;;;32.60;35.59;99481.00;4992941;28;882;-61
2021/08/03 16:07:18;;;;;;;;;;;;;;;32.55;36.11;99479.84;4993220;28;866;-61
2021/08/03 16:09:45;;;;;;;;;;;;;;;32.49;36.40;99477.09;4993016;28;843;-61
2021/08/03 16:12:12;;;;;;;;;;;;;;;32.42;35.63;99477.09;4992961;28;885;-61
2021/08/03 16:14:39;;;;;;;;;;;;;;;32.36;35.81;99485.81;4991275;28;1961;-61
2021/08/03 16:17:07;;;;;;;;;;;;;;;32.32;36.20;99486.16;4992877;28;882;-61
2021/08/03 16:19:36;;;;;;;;;;;;;;;32.27;36.36;99494.91;4992807;28;1000;-61
2021/08/03 16:22:03;;;;;;;;;;;;;;;32.12;37.30;99496.34;4992821;28;891;-61
2021/08/03 16:24:31;;;;;;;;;;;;;;;32.02;36.59;99498.19;4992761;28;811;-61
2021/08/03 16:26:58;;;;;;;;;;;;;;;31.99;36.71;99498.56;4992767;28;831;-61
2021/08/03 16:29:26;;;;;;;;;;;;;;;31.95;37.00;99513.91;4992698;28;835;-61
2021/08/03 16:31:53;;;;;;;;;;;;;;;31.87;37.03;99510.22;4992675;28;1220;-61
2021/08/03 16:34:22;;;;;;;;;;;;;;;31.72;38.67;99504.38;4992927;28;1914;-61
2021/08/03 16:36:53;;;;;;;;;;;;;;;31.43;40.60;99503.53;4992698;28;802;-61
2021/08/03 16:39:20;;;;;;;;;;;;;;;31.10;43.59;99494.44;4992453;28;815;-60
2021/08/03 16:41:48;;;;;;;;;;;;;;;30.69;49.20;99504.38;4992508;28;807;-60
2021/08/03 16:44:16;;;;;;;;;;;;;;;30.29;52.51;99501.56;4992526;28;1152;-60
2021/08/03 16:46:43;;;;;;;;;;;;;;;29.88;56.12;99514.19;4992636;28;803;-60
2021/08/03 16:49:10;;;;;;;;;;;;;;;29.45;58.23;99518.00;4992471;28;811;-60
2021/08/03 16:51:35;;;;;;;;;;;;;;;29.18;59.40;99534.16;4992382;28;815;-60
2021/08/03 16:54:02;;;;;;;;;;;;;;;28.90;61.15;99543.81;4992356;28;1899;-60
2021/08/03 16:56:29;;;;;;;;;;;;;;;28.63;61.97;99543.63;4992316;28;803;-61
2021/08/03 16:58:55;;;;;;;;;;;;;;;28.44;62.64;99546.41;4992315;28;835;-61
2021/08/03 17:01:28;;;;;;;;;;;;;;;28.33;63.27;99554.28;4992517;28;897;-60
2021/08/03 17:04:17;;;;;;;;;;;;;;;28.26;63.32;99555.63;4992094;28;866;-60
2021/08/03 17:06:57;;;;;;;;;;;;;;;28.09;64.25;99548.03;4992298;28;862;-60
2021/08/03 17:09:31;;;;;;;;;;;;;;;27.94;65.23;99559.03;4992485;28;883;-60
2021/08/03 17:12:09;;;;;;;;;;;;;;;27.75;65.85;99563.81;4990914;28;1200;-60
2021/08/03 17:14:37;;;;;;;;;;;;;;;27.56;66.76;99564.47;4992059;28;1886;-61
2021/08/03 17:17:05;;;;;;;;;;;;;;;27.38;66.93;99563.03;4992570;28;819;-60
2021/08/03 17:19:35;;;;;;;;;;;;;;;27.21;67.71;99570.84;4992129;28;881;-60
2021/08/03 17:22:06;;;;;;;;;;;;;;;27.07;68.51;99572.72;4992130;28;984;-60
2021/08/03 17:24:39;;;;;;;;;;;;;;;26.94;69.00;99578.19;4992353;28;858;-60
2021/08/03 17:27:06;;;;;;;;;;;;;;;26.82;69.41;99583.91;4992065;28;827;-60
2021/08/03 17:29:33;;;;;;;;;;;;;;;26.74;69.62;99580.09;4992087;28;1042;-60
2021/08/03 17:32:01;;;;;;;;;;;;;;;26.68;69.81;99582.16;4991954;28;890;-60
2021/08/03 17:34:27;;;;;;;;;;;;;;;26.60;70.01;99596.09;4992081;28;1910;-60
2021/08/03 17:36:54;;;;;;;;;;;;;;;26.53;70.67;99602.25;4991984;28;815;-60
2021/08/03 17:39:21;;;;;;;;;;;;;;;26.46;70.63;99597.13;4991944;28;847;-60
2021/08/03 17:41:49;;;;;;;;;;;;;;;26.38;70.88;99604.63;4991958;28;815;-60
2021/08/03 17:44:15;;;;;;;;;;;;;;;26.30;71.30;99610.03;4991893;28;878;-60
2021/08/03 17:46:46;;;;;;;;;;;;;;;26.12;71.60;99614.16;4991980;28;886;-60
2021/08/03 17:49:14;;;;;;;;;;;;;;;25.87;72.84;99616.69;4991838;28;803;-60
2021/08/03 17:51:42;;;;;;;;;;;;;;;25.73;73.27;99612.03;4995544;28;846;-60
2021/08/03 17:54:09;;;;;;;;;;;;;;;25.64;73.87;99610.22;4995764;28;1882;-60
2021/08/03 17:56:37;;;;;;;;;;;;;;;25.59;74.02;99610.25;4995831;28;827;-60
2021/08/03 17:59:06;;;;;;;;;;;;;;;25.53;74.25;99612.28;4995553;28;839;-60
2021/08/03 18:01:33;;;;;;;;;;;;;;;25.48;74.24;99613.81;4995228;28;863;-60
2021/08/03 18:04:00;;;;;;;;;;;;;;;25.49;74.64;99617.41;4995372;28;811;-60
2021/08/03 18:06:28;;;;;;;;;;;;;;;25.43;74.52;99620.22;4995305;28;846;-60
2021/08/03 18:08:55;;;;;;;;;;;;;;;25.34;74.78;99617.63;4995273;28;842;-60
2021/08/03 18:11:22;;;;;;;;;;;;;;;25.23;75.14;99624.03;4995414;28;828;-60
2021/08/03 18:13:51;;;;;;;;;;;;;;;25.13;75.72;99617.78;4995334;28;990;-61
2021/08/03 18:16:19;;;;;;;;;;;;;;;25.02;75.85;99618.50;4994947;28;1951;-60
2021/08/03 18:18:54;;;;;;;;;;;;;;;24.94;76.29;99623.09;4995392;28;997;-62
2021/08/03 18:21:21;;;;;;;;;;;;;;;24.84;76.66;99625.38;4995129;28;803;-62
2021/08/03 18:23:48;;;;;;;;;;;;;;;24.78;76.74;99626.63;4994983;28;814;-60
2021/08/03 18:26:27;;;;;;;;;;;;;;;24.73;76.93;99639.44;4995122;28;826;-62
2021/08/03 18:29:05;;;;;;;;;;;;;;;24.68;77.11;99645.81;4995004;28;862;-62
2021/08/03 18:31:33;;;;;;;;;;;;;;;24.60;77.33;99653.22;4994791;28;846;-62
2021/08/03 18:34:15;;;;;;;;;;;;;;;24.54;77.80;99647.53;4994869;28;1914;-62
2021/08/03 18:36:45;;;;;;;;;;;;;;;24.47;77.85;99656.44;4994711;28;944;-61
2021/08/03 18:39:13;;;;;;;;;;;;;;;24.43;78.19;99655.88;4994738;28;835;-61
2021/08/03 18:41:47;;;;;;;;;;;;;;;24.36;78.28;99659.94;4994828;28;830;-62
2021/08/03 18:44:16;;;;;;;;;;;;;;;24.29;78.66;99659.66;4994806;28;838;-62